sensor_id;sensor_type;location;lat;lon;timestamp;pressure;altitude;pressure_sealevel;temperature;humidity
75438;BME280;64015;49.392;15.582;2023-04-25T00:01:17;94921.22;;;6.32;87.62
75438;BME280;64015;49.392;15.582;2023-04-25T00:03:44;94913.63;;;6.35;88.03
75438;BME280;64015;49.392;15.582;2023-04-25T00:06:12;94913.38;;;6.37;87.47
75438;BME280;64015;49.392;15.582;2023-04-25T00:08:37;94917.81;;;6.36;87.13
75438;BME280;64015;49.392;15.582;2023-04-25T00:11:03;94928.31;;;6.36;87.00
75438;BME280;64015;49.392;15.582;2023-04-25T00:13:29;94920.16;;;6.33;87.10
75438;BME280;64015;49.392;15.582;2023-04-25T00:15:55;94923.31;;;6.40;86.01
75438;BME280;64015;49.392;15.582;2023-04-25T00:18:22;94918.88;;;6.51;86.29
75438;BME280;64015;49.392;15.582;2023-04-25T00:20:47;94926.47;;;6.47;86.28
75438;BME280;64015;49.392;15.582;2023-04-25T00:23:15;94920.19;;;6.48;85.88
75438;BME280;64015;49.392;15.582;2023-04-25T00:25:49;94918.09;;;6.55;85.71
75438;BME280;64015;49.392;15.582;2023-04-25T00:28:16;94927.50;;;6.51;85.58
75438;BME280;64015;49.392;15.582;2023-04-25T00:30:42;94912.34;;;6.48;85.26
75438;BME280;64015;49.392;15.582;2023-04-25T00:33:08;94922.28;;;6.66;83.92
75438;BME280;64015;49.392;15.582;2023-04-25T00:35:34;94924.91;;;6.61;84.79
75438;BME280;64015;49.392;15.582;2023-04-25T00:38:01;94927.78;;;6.55;84.78
75438;BME280;64015;49.392;15.582;2023-04-25T00:40:27;94931.72;;;6.47;85.30
75438;BME280;64015;49.392;15.582;2023-04-25T00:42:53;94931.72;;;6.47;84.80
75438;BME280;64015;49.392;15.582;2023-04-25T00:45:19;94932.22;;;6.59;84.96
75438;BME280;64015;49.392;15.582;2023-04-25T00:47:46;94931.97;;;6.56;84.20
75438;BME280;64015;49.392;15.582;2023-04-25T00:50:13;94927.78;;;6.50;84.43
75438;BME280;64015;49.392;15.582;2023-04-25T00:52:41;94924.88;;;6.51;84.80
75438;BME280;64015;49.392;15.582;2023-04-25T00:55:08;94924.88;;;6.51;84.43
75438;BME280;64015;49.392;15.582;2023-04-25T00:57:35;94926.22;;;6.49;84.17
75438;BME280;64015;49.392;15.582;2023-04-25T01:00:01;94931.97;;;6.56;83.92
75438;BME280;64015;49.392;15.582;2023-04-25T01:02:28;94930.16;;;6.56;83.27
75438;BME280;64015;49.392;15.582;2023-04-25T01:04:57;94929.09;;;6.47;84.29
75438;BME280;64015;49.392;15.582;2023-04-25T01:07:22;94921.75;;;6.49;84.18
75438;BME280;64015;49.392;15.582;2023-04-25T01:09:48;94925.16;;;6.55;83.70
75438;BME280;64015;49.392;15.582;2023-04-25T01:12:14;94921.75;;;6.49;84.50
75438;BME280;64015;49.392;15.582;2023-04-25T01:14:39;94925.16;;;6.45;83.81
75438;BME280;64015;49.392;15.582;2023-04-25T01:17:05;94919.66;;;6.41;83.71
75438;BME280;64015;49.392;15.582;2023-04-25T01:19:32;94919.91;;;6.40;84.27
75438;BME280;64015;49.392;15.582;2023-04-25T01:21:58;94918.34;;;6.39;83.95
75438;BME280;64015;49.392;15.582;2023-04-25T01:24:24;94910.22;;;6.35;84.29
75438;BME280;64015;49.392;15.582;2023-04-25T01:26:51;94914.94;;;6.28;84.25
75438;BME280;64015;49.392;15.582;2023-04-25T01:29:18;94915.47;;;6.35;83.34
75438;BME280;64015;49.392;15.582;2023-04-25T01:31:45;94911.78;;;6.36;84.01
75438;BME280;64015;49.392;15.582;2023-04-25T01:34:11;94915.97;;;6.42;83.79
75438;BME280;64015;49.392;15.582;2023-04-25T01:36:38;94916.75;;;6.32;84.00
75438;BME280;64015;49.392;15.582;2023-04-25T01:39:03;94922.53;;;6.34;85.02
75438;BME280;64015;49.392;15.582;2023-04-25T01:41:30;94930.66;;;6.28;84.16
75438;BME280;64015;49.392;15.582;2023-04-25T01:43:56;94917.78;;;6.21;85.09
75438;BME280;64015;49.392;15.582;2023-04-25T01:46:22;94905.47;;;6.22;83.93
75438;BME280;64015;49.392;15.582;2023-04-25T01:48:48;94919.38;;;6.27;84.78
75438;BME280;64015;49.392;15.582;2023-04-25T01:51:14;94914.66;;;6.19;84.93
75438;BME280;64015;49.392;15.582;2023-04-25T01:53:40;94912.56;;;6.11;84.46
75438;BME280;64015;49.392;15.582;2023-04-25T01:56:07;94913.34;;;6.17;84.96
75438;BME280;64015;49.392;15.582;2023-04-25T01:58:32;94919.09;;;6.14;85.46
75438;BME280;64015;49.392;15.582;2023-04-25T02:00:58;94909.38;;;6.04;85.53
75438;BME280;64015;49.392;15.582;2023-04-25T02:03:24;94909.13;;;6.01;85.82
75438;BME280;64015;49.392;15.582;2023-04-25T02:05:49;94903.63;;;6.12;85.52
75438;BME280;64015;49.392;15.582;2023-04-25T02:08:16;94906.50;;;6.01;85.89
75438;BME280;64015;49.392;15.582;2023-04-25T02:10:42;94907.53;;;5.89;86.97
75438;BME280;64015;49.392;15.582;2023-04-25T02:13:08;94902.84;;;5.96;86.54
75438;BME280;64015;49.392;15.582;2023-04-25T02:15:34;94910.88;;;5.85;86.65
75438;BME280;64015;49.392;15.582;2023-04-25T02:17:59;94898.59;;;5.80;86.27
75438;BME280;64015;49.392;15.582;2023-04-25T02:20:29;94904.31;;;5.72;86.55
75438;BME280;64015;49.392;15.582;2023-04-25T02:22:55;94906.94;;;5.72;87.29
75438;BME280;64015;49.392;15.582;2023-04-25T02:25:21;94910.56;;;5.56;87.89
75438;BME280;64015;49.392;15.582;2023-04-25T02:27:48;94902.19;;;5.59;87.34
75438;BME280;64015;49.392;15.582;2023-04-25T02:30:14;94906.88;;;5.52;88.80
75438;BME280;64015;49.392;15.582;2023-04-25T02:32:40;94909.44;;;5.47;89.50
75438;BME280;64015;49.392;15.582;2023-04-25T02:35:07;94900.31;;;5.44;89.67
75438;BME280;64015;49.392;15.582;2023-04-25T02:37:33;94899.03;;;5.52;89.50
75438;BME280;64015;49.392;15.582;2023-04-25T02:40:00;94907.38;;;5.49;89.55
75438;BME280;64015;49.392;15.582;2023-04-25T02:42:26;94908.63;;;5.36;90.47
75438;BME280;64015;49.392;15.582;2023-04-25T02:44:52;94906.53;;;5.33;91.13
75438;BME280;64015;49.392;15.582;2023-04-25T02:47:17;94902.88;;;5.39;90.95
75438;BME280;64015;49.392;15.582;2023-04-25T02:49:43;94905.25;;;5.41;90.30
75438;BME280;64015;49.392;15.582;2023-04-25T02:52:09;94894.19;;;5.18;92.08
75438;BME280;64015;49.392;15.582;2023-04-25T02:54:34;94888.59;;;5.05;92.72
75438;BME280;64015;49.392;15.582;2023-04-25T02:57:00;94893.59;;;5.06;93.85
75438;BME280;64015;49.392;15.582;2023-04-25T02:59:27;94894.31;;;5.02;93.62
75438;BME280;64015;49.392;15.582;2023-04-25T03:01:53;94891.47;;;5.03;93.62
75438;BME280;64015;49.392;15.582;2023-04-25T03:04:19;94888.84;;;5.03;94.11
75438;BME280;64015;49.392;15.582;2023-04-25T03:06:46;94890.13;;;5.01;94.88
75438;BME280;64015;49.392;15.582;2023-04-25T03:09:12;94885.28;;;5.19;94.81
75438;BME280;64015;49.392;15.582;2023-04-25T03:11:41;94887.34;;;5.12;94.25
75438;BME280;64015;49.392;15.582;2023-04-25T03:14:07;94878.94;;;5.10;94.84
75438;BME280;64015;49.392;15.582;2023-04-25T03:16:32;94893.09;;;5.09;95.09
75438;BME280;64015;49.392;15.582;2023-04-25T03:18:58;94889.41;;;5.05;95.01
75438;BME280;64015;49.392;15.582;2023-04-25T03:21:24;94877.97;;;5.16;93.95
75438;BME280;64015;49.392;15.582;2023-04-25T03:23:50;94879.47;;;5.07;94.84
75438;BME280;64015;49.392;15.582;2023-04-25T03:26:16;94900.81;;;4.94;95.65
75438;BME280;64015;49.392;15.582;2023-04-25T03:28:41;94888.78;;;4.88;97.13
75438;BME280;64015;49.392;15.582;2023-04-25T03:31:07;94889.22;;;4.75;97.52
75438;BME280;64015;49.392;15.582;2023-04-25T03:33:33;94892.59;;;4.75;96.91
75438;BME280;64015;49.392;15.582;2023-04-25T03:35:58;94894.09;;;4.61;97.85
75438;BME280;64015;49.392;15.582;2023-04-25T03:38:24;94897.97;;;4.59;98.57
75438;BME280;64015;49.392;15.582;2023-04-25T03:40:52;94883.28;;;4.47;98.71
75438;BME280;64015;49.392;15.582;2023-04-25T03:43:18;94886.91;;;4.46;99.34
75438;BME280;64015;49.392;15.582;2023-04-25T03:45:44;94891.56;;;4.39;99.97
75438;BME280;64015;49.392;15.582;2023-04-25T03:48:09;94897.41;;;4.52;99.87
75438;BME280;64015;49.392;15.582;2023-04-25T03:50:35;94887.16;;;4.45;99.88
75438;BME280;64015;49.392;15.582;2023-04-25T03:53:01;94884.31;;;4.46;99.51
75438;BME280;64015;49.392;15.582;2023-04-25T03:55:26;94889.25;;;4.43;100.00
75438;BME280;64015;49.392;15.582;2023-04-25T03:57:52;94892.75;;;4.27;100.00
75438;BME280;64015;49.392;15.582;2023-04-25T04:00:18;94892.50;;;4.23;100.00
75438;BME280;64015;49.392;15.582;2023-04-25T04:02:43;94893.13;;;4.08;100.00
75438;BME280;64015;49.392;15.582;2023-04-25T04:05:09;94900.59;;;3.95;100.00
75438;BME280;64015;49.392;15.582;2023-04-25T04:07:35;94889.03;;;3.86;100.00
75438;BME280;64015;49.392;15.582;2023-04-25T04:10:06;94897.56;;;3.81;100.00
75438;BME280;64015;49.392;15.582;2023-04-25T04:12:33;94888.31;;;3.68;100.00
75438;BME280;64015;49.392;15.582;2023-04-25T04:14:58;94893.53;;;3.68;100.00
75438;BME280;64015;49.392;15.582;2023-04-25T04:17:24;94899.44;;;3.59;100.00
75438;BME280;64015;49.392;15.582;2023-04-25T04:19:50;94895.41;;;3.73;100.00
75438;BME280;64015;49.392;15.582;2023-04-25T04:22:16;94896.50;;;3.77;100.00
75438;BME280;64015;49.392;15.582;2023-04-25T04:24:41;94890.38;;;3.66;100.00
75438;BME280;64015;49.392;15.582;2023-04-25T04:27:12;94886.44;;;3.64;100.00
75438;BME280;64015;49.392;15.582;2023-04-25T04:29:38;94894.09;;;3.49;100.00
75438;BME280;64015;49.392;15.582;2023-04-25T04:32:07;94887.00;;;3.44;100.00
75438;BME280;64015;49.392;15.582;2023-04-25T04:34:34;94882.94;;;3.53;100.00
75438;BME280;64015;49.392;15.582;2023-04-25T04:37:01;94888.09;;;3.48;100.00
75438;BME280;64015;49.392;15.582;2023-04-25T04:39:26;94894.16;;;3.54;100.00
75438;BME280;64015;49.392;15.582;2023-04-25T04:41:52;94891.25;;;3.50;100.00
75438;BME280;64015;49.392;15.582;2023-04-25T04:44:18;94883.97;;;3.52;100.00
75438;BME280;64015;49.392;15.582;2023-04-25T04:46:44;94888.94;;;3.54;100.00
75438;BME280;64015;49.392;15.582;2023-04-25T04:49:11;94894.38;;;3.52;100.00
75438;BME280;64015;49.392;15.582;2023-04-25T04:51:38;94890.81;;;3.58;100.00
75438;BME280;64015;49.392;15.582;2023-04-25T04:54:04;94898.16;;;3.61;100.00
75438;BME280;64015;49.392;15.582;2023-04-25T04:56:32;94897.09;;;3.62;100.00
75438;BME280;64015;49.392;15.582;2023-04-25T04:58:58;94890.38;;;3.66;100.00
75438;BME280;64015;49.392;15.582;2023-04-25T05:01:25;94898.53;;;3.70;100.00
75438;BME280;64015;49.392;15.582;2023-04-25T05:03:51;94890.19;;;3.73;100.00
75438;BME280;64015;49.392;15.582;2023-04-25T05:06:20;94887.91;;;3.82;100.00
75438;BME280;64015;49.392;15.582;2023-04-25T05:08:46;94898.47;;;3.92;100.00
75438;BME280;64015;49.392;15.582;2023-04-25T05:11:12;94886.59;;;4.06;100.00
75438;BME280;64015;49.392;15.582;2023-04-25T05:13:37;94890.66;;;4.24;100.00
75438;BME280;64015;49.392;15.582;2023-04-25T05:16:03;94884.28;;;4.41;100.00
75438;BME280;64015;49.392;15.582;2023-04-25T05:18:29;94891.19;;;4.58;100.00
75438;BME280;64015;49.392;15.582;2023-04-25T05:20:55;94891.56;;;4.71;100.00
75438;BME280;64015;49.392;15.582;2023-04-25T05:23:21;94896.94;;;5.02;100.00
75438;BME280;64015;49.392;15.582;2023-04-25T05:25:47;94894.47;;;5.27;100.00
75438;BME280;64015;49.392;15.582;2023-04-25T05:28:13;94893.75;;;5.37;97.96
75438;BME280;64015;49.392;15.582;2023-04-25T05:30:39;94897.88;;;5.33;97.20
75438;BME280;64015;49.392;15.582;2023-04-25T05:33:05;94885.66;;;5.48;95.70
75438;BME280;64015;49.392;15.582;2023-04-25T05:35:31;94894.84;;;5.56;95.78
75438;BME280;64015;49.392;15.582;2023-04-25T05:37:56;94903.75;;;5.55;95.26
75438;BME280;64015;49.392;15.582;2023-04-25T05:40:22;94897.97;;;5.53;95.29
75438;BME280;64015;49.392;15.582;2023-04-25T05:42:48;94905.28;;;5.51;95.81
75438;BME280;64015;49.392;15.582;2023-04-25T05:45:13;94908.69;;;5.51;95.79
75438;BME280;64015;49.392;15.582;2023-04-25T05:47:39;94902.72;;;5.56;94.35
75438;BME280;64015;49.392;15.582;2023-04-25T05:50:06;94901.13;;;5.55;94.08
75438;BME280;64015;49.392;15.582;2023-04-25T05:52:31;94914.47;;;5.53;94.73
75438;BME280;64015;49.392;15.582;2023-04-25T05:54:57;94910.28;;;5.57;93.20
75438;BME280;64015;49.392;15.582;2023-04-25T05:57:25;94911.81;;;5.48;93.93
75438;BME280;64015;49.392;15.582;2023-04-25T05:59:52;94906.56;;;5.48;94.12
75438;BME280;64015;49.392;15.582;2023-04-25T06:02:18;94902.97;;;5.54;95.80
75438;BME280;64015;49.392;15.582;2023-04-25T06:04:45;94893.78;;;5.52;94.98
75438;BME280;64015;49.392;15.582;2023-04-25T06:07:10;94902.22;;;5.69;94.63
75438;BME280;64015;49.392;15.582;2023-04-25T06:09:36;94893.06;;;5.72;94.36
75438;BME280;64015;49.392;15.582;2023-04-25T06:12:02;94893.84;;;5.77;93.40
75438;BME280;64015;49.392;15.582;2023-04-25T06:14:28;94901.56;;;6.09;92.57
75438;BME280;64015;49.392;15.582;2023-04-25T06:16:53;94896.59;;;6.28;89.99
75438;BME280;64015;49.392;15.582;2023-04-25T06:19:19;94885.34;;;6.32;90.18
75438;BME280;64015;49.392;15.582;2023-04-25T06:21:45;94886.38;;;6.36;89.90
75438;BME280;64015;49.392;15.582;2023-04-25T06:24:10;94884.53;;;6.32;90.14
75438;BME280;64015;49.392;15.582;2023-04-25T06:26:36;94879.31;;;6.52;89.27
75438;BME280;64015;49.392;15.582;2023-04-25T06:29:02;94879.81;;;6.59;87.76
75438;BME280;64015;49.392;15.582;2023-04-25T06:31:27;94878.25;;;6.58;87.70
75438;BME280;64015;49.392;15.582;2023-04-25T06:33:54;94876.41;;;6.84;88.51
75438;BME280;64015;49.392;15.582;2023-04-25T06:36:22;94882.91;;;6.97;87.93
75438;BME280;64015;49.392;15.582;2023-04-25T06:38:53;94883.94;;;7.06;86.23
75438;BME280;64015;49.392;15.582;2023-04-25T06:41:20;94872.44;;;6.97;85.58
75438;BME280;64015;49.392;15.582;2023-04-25T06:43:45;94872.94;;;7.09;85.39
75438;BME280;64015;49.392;15.582;2023-04-25T06:46:12;94868.72;;;7.13;85.05
75438;BME280;64015;49.392;15.582;2023-04-25T06:48:37;94857.97;;;7.09;83.77
75438;BME280;64015;49.392;15.582;2023-04-25T06:51:03;94871.81;;;7.25;84.06
75438;BME280;64015;49.392;15.582;2023-04-25T06:53:29;94870.84;;;7.11;83.10
75438;BME280;64015;49.392;15.582;2023-04-25T06:55:57;94876.25;;;7.35;84.22
75438;BME280;64015;49.392;15.582;2023-04-25T06:58:22;94876.97;;;7.56;81.75
75438;BME280;64015;49.392;15.582;2023-04-25T07:00:48;94867.94;;;7.77;81.07
75438;BME280;64015;49.392;15.582;2023-04-25T07:03:13;94877.75;;;8.05;82.17
75438;BME280;64015;49.392;15.582;2023-04-25T07:05:40;94878.31;;;8.41;79.50
75438;BME280;64015;49.392;15.582;2023-04-25T07:08:06;94863.41;;;8.32;77.66
75438;BME280;64015;49.392;15.582;2023-04-25T07:10:31;94873.72;;;8.18;79.43
75438;BME280;64015;49.392;15.582;2023-04-25T07:12:57;94864.06;;;8.08;78.74
75438;BME280;64015;49.392;15.582;2023-04-25T07:15:23;94861.38;;;8.18;78.59
75438;BME280;64015;49.392;15.582;2023-04-25T07:17:48;94871.19;;;8.03;78.44
75438;BME280;64015;49.392;15.582;2023-04-25T07:20:14;94868.03;;;8.06;79.51
75438;BME280;64015;49.392;15.582;2023-04-25T07:22:41;94863.47;;;8.21;77.62
75438;BME280;64015;49.392;15.582;2023-04-25T07:25:07;94875.13;;;8.05;78.10
75438;BME280;64015;49.392;15.582;2023-04-25T07:27:33;94875.41;;;7.99;79.22
75438;BME280;64015;49.392;15.582;2023-04-25T07:30:00;94867.41;;;8.19;78.10
75438;BME280;64015;49.392;15.582;2023-04-25T07:32:26;94870.72;;;8.40;77.57
75438;BME280;64015;49.392;15.582;2023-04-25T07:35:05;94867.28;;;8.39;77.58
75438;BME280;64015;49.392;15.582;2023-04-25T07:37:33;94857.69;;;8.53;76.80
75438;BME280;64015;49.392;15.582;2023-04-25T07:39:58;94848.91;;;8.68;76.63
75438;BME280;64015;49.392;15.582;2023-04-25T07:42:24;94860.50;;;8.67;77.58
75438;BME280;64015;49.392;15.582;2023-04-25T07:44:50;94849.59;;;8.50;76.49
75438;BME280;64015;49.392;15.582;2023-04-25T07:47:17;94849.22;;;8.33;76.09
75438;BME280;64015;49.392;15.582;2023-04-25T07:49:44;94847.69;;;8.21;77.20
75438;BME280;64015;49.392;15.582;2023-04-25T07:52:11;94852.94;;;8.21;77.64
75438;BME280;64015;49.392;15.582;2023-04-25T07:54:42;94851.06;;;8.32;77.19
75438;BME280;64015;49.392;15.582;2023-04-25T07:57:08;94858.19;;;8.21;77.58
75438;BME280;64015;49.392;15.582;2023-04-25T07:59:34;94858.78;;;8.13;79.43
75438;BME280;64015;49.392;15.582;2023-04-25T08:02:00;94849.72;;;7.96;81.58
75438;BME280;64015;49.392;15.582;2023-04-25T08:04:26;94869.53;;;7.78;87.19
75438;BME280;64015;49.392;15.582;2023-04-25T08:06:51;94854.13;;;7.51;86.57
75438;BME280;64015;49.392;15.582;2023-04-25T08:09:19;94864.38;;;7.58;89.88
75438;BME280;64015;49.392;15.582;2023-04-25T08:11:45;94864.31;;;7.68;91.03
75438;BME280;64015;49.392;15.582;2023-04-25T08:14:12;94854.31;;;7.70;86.53
75438;BME280;64015;49.392;15.582;2023-04-25T08:16:38;94860.81;;;7.88;86.53
75438;BME280;64015;49.392;15.582;2023-04-25T08:19:05;94851.44;;;8.15;84.67
75438;BME280;64015;49.392;15.582;2023-04-25T08:21:31;94853.84;;;8.46;83.54
75438;BME280;64015;49.392;15.582;2023-04-25T08:23:58;94855.84;;;8.88;82.77
75438;BME280;64015;49.392;15.582;2023-04-25T08:26:24;94853.94;;;9.41;83.12
75438;BME280;64015;49.392;15.582;2023-04-25T08:28:50;94854.03;;;9.31;77.35
75438;BME280;64015;49.392;15.582;2023-04-25T08:31:16;94847.09;;;8.92;77.32
75438;BME280;64015;49.392;15.582;2023-04-25T08:33:42;94861.19;;;9.02;76.88
75438;BME280;64015;49.392;15.582;2023-04-25T08:36:09;94853.75;;;9.09;76.65
75438;BME280;64015;49.392;15.582;2023-04-25T08:38:35;94843.53;;;9.31;77.58
75438;BME280;64015;49.392;15.582;2023-04-25T08:41:02;94846.88;;;9.36;75.77
75438;BME280;64015;49.392;15.582;2023-04-25T08:43:29;94851.31;;;9.41;78.45
75438;BME280;64015;49.392;15.582;2023-04-25T08:46:00;94855.22;;;9.20;78.68
75438;BME280;64015;49.392;15.582;2023-04-25T08:48:32;94853.72;;;9.14;79.69
75438;BME280;64015;49.392;15.582;2023-04-25T08:51:01;94860.41;;;9.01;80.17
75438;BME280;64015;49.392;15.582;2023-04-25T08:53:32;94867.16;;;9.12;80.32
75438;BME280;64015;49.392;15.582;2023-04-25T08:56:00;94856.16;;;9.29;81.05
75438;BME280;64015;49.392;15.582;2023-04-25T08:58:29;94861.13;;;9.35;79.31
75438;BME280;64015;49.392;15.582;2023-04-25T09:00:55;94873.25;;;9.08;79.09
75438;BME280;64015;49.392;15.582;2023-04-25T09:03:21;94877.47;;;8.46;79.01
75438;BME280;64015;49.392;15.582;2023-04-25T09:05:53;94878.94;;;8.23;78.87
75438;BME280;64015;49.392;15.582;2023-04-25T09:08:21;94866.91;;;7.78;80.57
75438;BME280;64015;49.392;15.582;2023-04-25T09:10:46;94875.34;;;7.65;83.91
75438;BME280;64015;49.392;15.582;2023-04-25T09:13:14;94881.88;;;7.72;85.11
75438;BME280;64015;49.392;15.582;2023-04-25T09:15:51;94878.69;;;8.24;84.60
75438;BME280;64015;49.392;15.582;2023-04-25T09:18:27;94879.59;;;8.44;82.02
75438;BME280;64015;49.392;15.582;2023-04-25T09:20:54;94884.34;;;8.76;79.00
75438;BME280;64015;49.392;15.582;2023-04-25T09:23:21;94890.09;;;8.49;79.52
75438;BME280;64015;49.392;15.582;2023-04-25T09:25:49;94887.50;;;8.73;84.05
75438;BME280;64015;49.392;15.582;2023-04-25T09:28:15;94881.34;;;8.87;84.53
75438;BME280;64015;49.392;15.582;2023-04-25T09:30:41;94884.94;;;8.96;82.66
75438;BME280;64015;49.392;15.582;2023-04-25T09:33:09;94893.44;;;8.88;84.71
75438;BME280;64015;49.392;15.582;2023-04-25T09:35:41;94894.66;;;8.67;83.51
75438;BME280;64015;49.392;15.582;2023-04-25T09:38:11;94897.44;;;8.52;85.24
75438;BME280;64015;49.392;15.582;2023-04-25T09:40:42;94896.22;;;8.34;87.49
75438;BME280;64015;49.392;15.582;2023-04-25T09:43:09;94897.72;;;8.01;91.84
75438;BME280;64015;49.392;15.582;2023-04-25T09:45:42;94894.63;;;7.94;91.86
75438;BME280;64015;49.392;15.582;2023-04-25T09:48:12;94890.47;;;8.32;93.88
75438;BME280;64015;49.392;15.582;2023-04-25T09:50:38;94898.25;;;8.47;89.98
75438;BME280;64015;49.392;15.582;2023-04-25T09:53:05;94897.91;;;8.54;86.41
75438;BME280;64015;49.392;15.582;2023-04-25T09:55:32;94901.59;;;8.53;86.67
75438;BME280;64015;49.392;15.582;2023-04-25T09:58:04;94893.81;;;8.72;84.61
75438;BME280;64015;49.392;15.582;2023-04-25T10:00:32;94883.72;;;8.84;82.20
75438;BME280;64015;49.392;15.582;2023-04-25T10:03:01;94875.88;;;9.31;82.18
75438;BME280;64015;49.392;15.582;2023-04-25T10:05:30;94868.31;;;9.72;81.26
75438;BME280;64015;49.392;15.582;2023-04-25T10:07:59;94864.16;;;10.04;77.86
75438;BME280;64015;49.392;15.582;2023-04-25T10:10:27;94862.47;;;10.32;77.24
75438;BME280;64015;49.392;15.582;2023-04-25T10:12:54;94859.16;;;10.59;76.57
75438;BME280;64015;49.392;15.582;2023-04-25T10:15:21;94858.63;;;10.43;69.38
75438;BME280;64015;49.392;15.582;2023-04-25T10:17:47;94855.06;;;10.34;71.93
75438;BME280;64015;49.392;15.582;2023-04-25T10:20:14;94844.38;;;9.69;71.66
75438;BME280;64015;49.392;15.582;2023-04-25T10:22:43;94856.06;;;9.82;74.24
75438;BME280;64015;49.392;15.582;2023-04-25T10:25:09;94854.44;;;9.43;73.35
75438;BME280;64015;49.392;15.582;2023-04-25T10:27:36;94856.59;;;9.36;74.83
75438;BME280;64015;49.392;15.582;2023-04-25T10:30:10;94859.06;;;9.51;74.63
75438;BME280;64015;49.392;15.582;2023-04-25T10:32:44;94842.41;;;9.98;72.97
75438;BME280;64015;49.392;15.582;2023-04-25T10:40:26;94826.22;;;11.16;67.10
75438;BME280;64015;49.392;15.582;2023-04-25T10:42:52;94831.00;;;11.28;65.64
75438;BME280;64015;49.392;15.582;2023-04-25T10:45:19;94833.13;;;11.67;64.34
75438;BME280;64015;49.392;15.582;2023-04-25T10:47:46;94833.03;;;11.31;61.88
75438;BME280;64015;49.392;15.582;2023-04-25T10:50:14;94826.66;;;12.45;60.81
75438;BME280;64015;49.392;15.582;2023-04-25T10:52:41;94818.84;;;12.93;56.00
75438;BME280;64015;49.392;15.582;2023-04-25T10:55:07;94818.38;;;13.96;54.71
75438;BME280;64015;49.392;15.582;2023-04-25T10:57:41;94807.91;;;14.34;55.31
75438;BME280;64015;49.392;15.582;2023-04-25T11:00:18;94814.31;;;14.50;51.14
75438;BME280;64015;49.392;15.582;2023-04-25T11:05:41;94871.09;;;11.30;63.24
75438;BME280;64015;49.392;15.582;2023-04-25T11:08:11;94846.75;;;10.59;62.68
75438;BME280;64015;49.392;15.582;2023-04-25T11:10:37;94842.53;;;9.88;64.45
75438;BME280;64015;49.392;15.582;2023-04-25T11:13:05;94847.53;;;9.47;65.65
75438;BME280;64015;49.392;15.582;2023-04-25T11:15:39;94847.66;;;9.13;73.62
75438;BME280;64015;49.392;15.582;2023-04-25T11:18:07;94840.19;;;8.73;77.70
75438;BME280;64015;49.392;15.582;2023-04-25T11:20:33;94841.16;;;8.53;78.69
75438;BME280;64015;49.392;15.582;2023-04-25T11:22:59;94834.53;;;8.60;81.11
75438;BME280;64015;49.392;15.582;2023-04-25T11:25:25;94831.19;;;8.79;77.44
75438;BME280;64015;49.392;15.582;2023-04-25T11:27:52;94832.03;;;9.22;76.92
75438;BME280;64015;49.392;15.582;2023-04-25T11:30:18;94832.41;;;10.65;71.46
75438;BME280;64015;49.392;15.582;2023-04-25T11:32:44;94829.06;;;11.96;64.77
75438;BME280;64015;49.392;15.582;2023-04-25T11:35:11;94820.91;;;13.44;58.10
75438;BME280;64015;49.392;15.582;2023-04-25T11:37:40;94828.03;;;14.69;54.17
75438;BME280;64015;49.392;15.582;2023-04-25T11:40:07;94815.47;;;16.13;47.85
75438;BME280;64015;49.392;15.582;2023-04-25T11:42:45;94818.94;;;17.00;44.68
75438;BME280;64015;49.392;15.582;2023-04-25T11:45:12;94808.31;;;17.37;44.98
75438;BME280;64015;49.392;15.582;2023-04-25T11:47:38;94824.00;;;15.18;49.40
75438;BME280;64015;49.392;15.582;2023-04-25T11:50:06;94832.88;;;14.24;53.61
75438;BME280;64015;49.392;15.582;2023-04-25T11:55:09;94843.34;;;13.07;58.14
75438;BME280;64015;49.392;15.582;2023-04-25T11:57:40;94845.28;;;11.27;61.77
75438;BME280;64015;49.392;15.582;2023-04-25T12:00:14;94847.53;;;10.27;67.24
75438;BME280;64015;49.392;15.582;2023-04-25T12:02:45;94851.50;;;9.26;71.43
75438;BME280;64015;49.392;15.582;2023-04-25T12:05:12;94865.94;;;8.99;71.95
75438;BME280;64015;49.392;15.582;2023-04-25T12:07:39;94864.81;;;8.82;73.41
75438;BME280;64015;49.392;15.582;2023-04-25T12:10:09;94860.50;;;8.67;74.67
75438;BME280;64015;49.392;15.582;2023-04-25T12:12:36;94852.75;;;8.52;75.67
75438;BME280;64015;49.392;15.582;2023-04-25T12:15:12;94859.66;;;8.43;76.57
75438;BME280;64015;49.392;15.582;2023-04-25T12:17:51;94864.44;;;8.93;77.21
75438;BME280;64015;49.392;15.582;2023-04-25T12:20:23;94863.78;;;9.30;74.01
75438;BME280;64015;49.392;15.582;2023-04-25T12:22:51;94856.16;;;9.53;73.42
75438;BME280;64015;49.392;15.582;2023-04-25T12:25:36;94860.69;;;10.08;70.72
75438;BME280;64015;49.392;15.582;2023-04-25T12:28:23;94862.47;;;10.32;66.51
75438;BME280;64015;49.392;15.582;2023-04-25T12:31:02;94863.84;;;12.26;60.04
75438;BME280;64015;49.392;15.582;2023-04-25T12:33:31;94872.22;;;12.06;62.99
75438;BME280;64015;49.392;15.582;2023-04-25T12:35:57;94875.41;;;11.26;65.56
75438;BME280;64015;49.392;15.582;2023-04-25T12:38:25;94870.44;;;11.38;68.92
75438;BME280;64015;49.392;15.582;2023-04-25T12:40:52;94885.59;;;11.46;66.69
75438;BME280;64015;49.392;15.582;2023-04-25T12:43:18;94881.59;;;10.89;68.41
75438;BME280;64015;49.392;15.582;2023-04-25T12:45:44;94903.66;;;10.79;68.06
75438;BME280;64015;49.392;15.582;2023-04-25T12:48:10;94933.88;;;9.93;69.28
75438;BME280;64015;49.392;15.582;2023-04-25T12:50:36;94934.97;;;8.57;74.04
75438;BME280;64015;49.392;15.582;2023-04-25T12:53:02;94939.50;;;8.47;76.42
75438;BME280;64015;49.392;15.582;2023-04-25T12:55:30;94929.16;;;8.16;78.94
75438;BME280;64015;49.392;15.582;2023-04-25T12:57:56;94940.28;;;8.52;78.53
75438;BME280;64015;49.392;15.582;2023-04-25T13:00:22;94930.63;;;9.29;75.54
75438;BME280;64015;49.392;15.582;2023-04-25T13:02:48;94933.78;;;9.79;75.02
75438;BME280;64015;49.392;15.582;2023-04-25T13:05:14;94946.25;;;8.92;74.96
75438;BME280;64015;49.392;15.582;2023-04-25T13:07:39;94921.88;;;8.52;76.95